sensor_id;sensor_type;location;lat;lon;timestamp;P1;durP1;ratioP1;P2;durP2;ratioP2
6173;SDS011;3120;48.796;9.796;2023-12-04T00:00:25;41.40;;;20.83;;
6173;SDS011;3120;48.796;9.796;2023-12-04T00:02:51;53.13;;;24.38;;
6173;SDS011;3120;48.796;9.796;2023-12-04T00:05:16;52.00;;;22.52;;
6173;SDS011;3120;48.796;9.796;2023-12-04T00:07:42;48.28;;;20.65;;
6173;SDS011;3120;48.796;9.796;2023-12-04T00:10:07;43.45;;;20.02;;
6173;SDS011;3120;48.796;9.796;2023-12-04T00:12:33;46.88;;;20.48;;
6173;SDS011;3120;48.796;9.796;2023-12-04T00:14:59;49.08;;;20.85;;
6173;SDS011;3120;48.796;9.796;2023-12-04T00:17:24;36.03;;;18.42;;
6173;SDS011;3120;48.796;9.796;2023-12-04T00:19:50;42.75;;;20.77;;
6173;SDS011;3120;48.796;9.796;2023-12-04T00:22:15;43.58;;;20.10;;
6173;SDS011;3120;48.796;9.796;2023-12-04T00:24:41;37.47;;;16.42;;
6173;SDS011;3120;48.796;9.796;2023-12-04T00:27:06;43.25;;;18.40;;
6173;SDS011;3120;48.796;9.796;2023-12-04T00:29:32;39.00;;;17.50;;
6173;SDS011;3120;48.796;9.796;2023-12-04T00:31:58;39.28;;;18.25;;
6173;SDS011;3120;48.796;9.796;2023-12-04T00:34:23;38.92;;;17.88;;
6173;SDS011;3120;48.796;9.796;2023-12-04T00:36:49;36.13;;;16.85;;
6173;SDS011;3120;48.796;9.796;2023-12-04T00:39:15;39.65;;;18.40;;
6173;SDS011;3120;48.796;9.796;2023-12-04T00:41:41;39.63;;;17.65;;
6173;SDS011;3120;48.796;9.796;2023-12-04T00:44:06;37.53;;;17.08;;
6173;SDS011;3120;48.796;9.796;2023-12-04T00:46:33;43.40;;;16.92;;
6173;SDS011;3120;48.796;9.796;2023-12-04T00:48:58;37.58;;;16.45;;
6173;SDS011;3120;48.796;9.796;2023-12-04T00:51:24;30.02;;;15.10;;
6173;SDS011;3120;48.796;9.796;2023-12-04T00:53:51;35.03;;;16.63;;
6173;SDS011;3120;48.796;9.796;2023-12-04T00:56:16;34.47;;;15.07;;
6173;SDS011;3120;48.796;9.796;2023-12-04T00:58:43;36.92;;;17.15;;
6173;SDS011;3120;48.796;9.796;2023-12-04T01:01:09;34.05;;;15.32;;
6173;SDS011;3120;48.796;9.796;2023-12-04T01:03:34;39.95;;;16.58;;
6173;SDS011;3120;48.796;9.796;2023-12-04T01:06:00;34.67;;;15.93;;
6173;SDS011;3120;48.796;9.796;2023-12-04T01:08:25;34.65;;;15.75;;
6173;SDS011;3120;48.796;9.796;2023-12-04T01:10:51;33.33;;;15.48;;
6173;SDS011;3120;48.796;9.796;2023-12-04T01:13:16;38.60;;;16.30;;
6173;SDS011;3120;48.796;9.796;2023-12-04T01:15:42;31.35;;;15.68;;
6173;SDS011;3120;48.796;9.796;2023-12-04T01:18:08;33.88;;;15.05;;
6173;SDS011;3120;48.796;9.796;2023-12-04T01:20:33;35.78;;;15.48;;
6173;SDS011;3120;48.796;9.796;2023-12-04T01:22:59;35.55;;;15.70;;
6173;SDS011;3120;48.796;9.796;2023-12-04T01:25:25;29.35;;;13.80;;
6173;SDS011;3120;48.796;9.796;2023-12-04T01:27:50;29.02;;;14.18;;
6173;SDS011;3120;48.796;9.796;2023-12-04T01:30:16;33.40;;;15.15;;
6173;SDS011;3120;48.796;9.796;2023-12-04T01:32:42;31.17;;;14.05;;
6173;SDS011;3120;48.796;9.796;2023-12-04T01:35:07;33.10;;;14.73;;
6173;SDS011;3120;48.796;9.796;2023-12-04T01:37:33;33.40;;;15.50;;
6173;SDS011;3120;48.796;9.796;2023-12-04T01:39:58;28.65;;;13.85;;
6173;SDS011;3120;48.796;9.796;2023-12-04T01:42:24;30.65;;;14.93;;
6173;SDS011;3120;48.796;9.796;2023-12-04T01:44:50;22.77;;;10.95;;
6173;SDS011;3120;48.796;9.796;2023-12-04T01:47:15;32.65;;;13.43;;
6173;SDS011;3120;48.796;9.796;2023-12-04T01:49:42;30.45;;;13.60;;
6173;SDS011;3120;48.796;9.796;2023-12-04T01:52:08;29.80;;;14.23;;
6173;SDS011;3120;48.796;9.796;2023-12-04T01:54:34;34.15;;;14.10;;
6173;SDS011;3120;48.796;9.796;2023-12-04T01:57:02;27.63;;;13.20;;
6173;SDS011;3120;48.796;9.796;2023-12-04T01:59:29;31.77;;;14.77;;
6173;SDS011;3120;48.796;9.796;2023-12-04T02:01:54;36.15;;;14.38;;
6173;SDS011;3120;48.796;9.796;2023-12-04T02:04:21;27.15;;;13.32;;
6173;SDS011;3120;48.796;9.796;2023-12-04T02:06:47;32.20;;;13.25;;
6173;SDS011;3120;48.796;9.796;2023-12-04T02:09:12;35.95;;;15.30;;
6173;SDS011;3120;48.796;9.796;2023-12-04T02:11:41;34.72;;;15.02;;
6173;SDS011;3120;48.796;9.796;2023-12-04T02:14:06;32.60;;;15.20;;
6173;SDS011;3120;48.796;9.796;2023-12-04T02:16:32;33.20;;;14.60;;
6173;SDS011;3120;48.796;9.796;2023-12-04T02:19:05;36.40;;;16.67;;
6173;SDS011;3120;48.796;9.796;2023-12-04T02:21:36;29.95;;;14.10;;
6173;SDS011;3120;48.796;9.796;2023-12-04T02:24:02;29.85;;;13.95;;
6173;SDS011;3120;48.796;9.796;2023-12-04T02:26:28;33.50;;;14.65;;
6173;SDS011;3120;48.796;9.796;2023-12-04T02:29:01;26.75;;;13.57;;
6173;SDS011;3120;48.796;9.796;2023-12-04T02:31:30;27.27;;;12.95;;
6173;SDS011;3120;48.796;9.796;2023-12-04T02:33:57;33.20;;;13.25;;
6173;SDS011;3120;48.796;9.796;2023-12-04T02:36:25;25.52;;;11.27;;
6173;SDS011;3120;48.796;9.796;2023-12-04T02:38:52;25.88;;;11.88;;
6173;SDS011;3120;48.796;9.796;2023-12-04T02:41:18;25.25;;;11.43;;
6173;SDS011;3120;48.796;9.796;2023-12-04T02:43:44;28.20;;;12.20;;
6173;SDS011;3120;48.796;9.796;2023-12-04T02:46:10;25.10;;;12.52;;
6173;SDS011;3120;48.796;9.796;2023-12-04T02:48:35;30.27;;;13.95;;
6173;SDS011;3120;48.796;9.796;2023-12-04T02:51:02;29.70;;;13.77;;
6173;SDS011;3120;48.796;9.796;2023-12-04T02:53:28;31.35;;;13.38;;
6173;SDS011;3120;48.796;9.796;2023-12-04T02:55:53;33.13;;;13.40;;
6173;SDS011;3120;48.796;9.796;2023-12-04T02:58:19;35.88;;;14.45;;
6173;SDS011;3120;48.796;9.796;2023-12-04T03:00:44;29.23;;;11.68;;
6173;SDS011;3120;48.796;9.796;2023-12-04T03:03:10;28.98;;;12.30;;
6173;SDS011;3120;48.796;9.796;2023-12-04T03:05:35;23.05;;;11.55;;
6173;SDS011;3120;48.796;9.796;2023-12-04T03:08:01;25.38;;;12.23;;
6173;SDS011;3120;48.796;9.796;2023-12-04T03:10:27;26.88;;;13.27;;
6173;SDS011;3120;48.796;9.796;2023-12-04T03:12:52;28.88;;;12.48;;
6173;SDS011;3120;48.796;9.796;2023-12-04T03:15:18;29.63;;;13.38;;
6173;SDS011;3120;48.796;9.796;2023-12-04T03:17:43;28.48;;;13.55;;
6173;SDS011;3120;48.796;9.796;2023-12-04T03:20:09;22.85;;;12.45;;
6173;SDS011;3120;48.796;9.796;2023-12-04T03:22:36;31.63;;;13.38;;
6173;SDS011;3120;48.796;9.796;2023-12-04T03:25:02;26.48;;;11.10;;
6173;SDS011;3120;48.796;9.796;2023-12-04T03:27:27;20.88;;;9.88;;
6173;SDS011;3120;48.796;9.796;2023-12-04T03:29:53;25.73;;;11.57;;
6173;SDS011;3120;48.796;9.796;2023-12-04T03:32:19;23.90;;;11.07;;
6173;SDS011;3120;48.796;9.796;2023-12-04T03:34:45;22.05;;;11.40;;
6173;SDS011;3120;48.796;9.796;2023-12-04T03:37:10;28.40;;;12.15;;
6173;SDS011;3120;48.796;9.796;2023-12-04T03:39:36;23.20;;;12.02;;
6173;SDS011;3120;48.796;9.796;2023-12-04T03:42:01;23.00;;;12.10;;
6173;SDS011;3120;48.796;9.796;2023-12-04T03:44:27;28.17;;;12.85;;
6173;SDS011;3120;48.796;9.796;2023-12-04T03:46:53;26.65;;;11.45;;
6173;SDS011;3120;48.796;9.796;2023-12-04T03:49:18;31.50;;;12.13;;
6173;SDS011;3120;48.796;9.796;2023-12-04T03:51:44;22.88;;;12.00;;
6173;SDS011;3120;48.796;9.796;2023-12-04T03:54:09;24.30;;;10.43;;
6173;SDS011;3120;48.796;9.796;2023-12-04T03:56:35;26.45;;;11.70;;
6173;SDS011;3120;48.796;9.796;2023-12-04T03:59:00;24.95;;;11.90;;
6173;SDS011;3120;48.796;9.796;2023-12-04T04:01:26;28.65;;;11.43;;
6173;SDS011;3120;48.796;9.796;2023-12-04T04:03:51;23.00;;;11.63;;
6173;SDS011;3120;48.796;9.796;2023-12-04T04:06:17;23.60;;;11.02;;
6173;SDS011;3120;48.796;9.796;2023-12-04T04:08:42;22.25;;;9.20;;
6173;SDS011;3120;48.796;9.796;2023-12-04T04:11:08;21.30;;;10.88;;
6173;SDS011;3120;48.796;9.796;2023-12-04T04:13:33;22.83;;;9.88;;
6173;SDS011;3120;48.796;9.796;2023-12-04T04:15:59;21.45;;;9.93;;
6173;SDS011;3120;48.796;9.796;2023-12-04T04:18:25;19.02;;;10.20;;
6173;SDS011;3120;48.796;9.796;2023-12-04T04:20:50;23.65;;;9.88;;
6173;SDS011;3120;48.796;9.796;2023-12-04T04:23:16;24.10;;;9.50;;
6173;SDS011;3120;48.796;9.796;2023-12-04T04:25:41;20.70;;;11.00;;
6173;SDS011;3120;48.796;9.796;2023-12-04T04:28:07;24.83;;;10.60;;
6173;SDS011;3120;48.796;9.796;2023-12-04T04:30:32;20.80;;;9.52;;
6173;SDS011;3120;48.796;9.796;2023-12-04T04:32:58;21.60;;;9.65;;
6173;SDS011;3120;48.796;9.796;2023-12-04T04:35:23;21.45;;;10.15;;
6173;SDS011;3120;48.796;9.796;2023-12-04T04:37:49;21.67;;;9.45;;
6173;SDS011;3120;48.796;9.796;2023-12-04T04:40:15;14.93;;;7.10;;
6173;SDS011;3120;48.796;9.796;2023-12-04T04:42:41;16.45;;;7.00;;
6173;SDS011;3120;48.796;9.796;2023-12-04T04:45:07;17.75;;;7.88;;
6173;SDS011;3120;48.796;9.796;2023-12-04T04:47:33;21.67;;;9.45;;
6173;SDS011;3120;48.796;9.796;2023-12-04T04:49:58;18.90;;;9.18;;
6173;SDS011;3120;48.796;9.796;2023-12-04T04:52:24;18.23;;;9.15;;
6173;SDS011;3120;48.796;9.796;2023-12-04T04:54:49;23.02;;;11.10;;
6173;SDS011;3120;48.796;9.796;2023-12-04T04:57:15;10.40;;;4.63;;
6173;SDS011;3120;48.796;9.796;2023-12-04T04:59:40;14.85;;;6.40;;
6173;SDS011;3120;48.796;9.796;2023-12-04T05:02:06;18.27;;;8.75;;
6173;SDS011;3120;48.796;9.796;2023-12-04T05:04:31;17.65;;;9.20;;
6173;SDS011;3120;48.796;9.796;2023-12-04T05:06:57;19.63;;;8.18;;
6173;SDS011;3120;48.796;9.796;2023-12-04T05:09:22;21.98;;;9.32;;
6173;SDS011;3120;48.796;9.796;2023-12-04T05:11:49;21.35;;;9.15;;
6173;SDS011;3120;48.796;9.796;2023-12-04T05:14:14;25.38;;;9.90;;
6173;SDS011;3120;48.796;9.796;2023-12-04T05:16:40;18.75;;;8.48;;
6173;SDS011;3120;48.796;9.796;2023-12-04T05:19:05;19.75;;;8.95;;
6173;SDS011;3120;48.796;9.796;2023-12-04T05:21:31;19.60;;;8.18;;
6173;SDS011;3120;48.796;9.796;2023-12-04T05:23:56;18.50;;;8.10;;
6173;SDS011;3120;48.796;9.796;2023-12-04T05:26:22;15.77;;;6.72;;
6173;SDS011;3120;48.796;9.796;2023-12-04T05:28:47;14.48;;;6.55;;
6173;SDS011;3120;48.796;9.796;2023-12-04T05:31:13;21.20;;;9.75;;
6173;SDS011;3120;48.796;9.796;2023-12-04T05:33:38;23.15;;;9.98;;
6173;SDS011;3120;48.796;9.796;2023-12-04T05:36:04;20.60;;;9.43;;
6173;SDS011;3120;48.796;9.796;2023-12-04T05:38:31;18.60;;;9.50;;
6173;SDS011;3120;48.796;9.796;2023-12-04T05:40:57;24.55;;;9.70;;
6173;SDS011;3120;48.796;9.796;2023-12-04T05:43:22;19.40;;;10.38;;
6173;SDS011;3120;48.796;9.796;2023-12-04T05:45:48;21.88;;;10.43;;
6173;SDS011;3120;48.796;9.796;2023-12-04T05:48:14;23.92;;;10.65;;
6173;SDS011;3120;48.796;9.796;2023-12-04T05:50:39;21.63;;;10.88;;
6173;SDS011;3120;48.796;9.796;2023-12-04T05:53:06;24.23;;;11.70;;
6173;SDS011;3120;48.796;9.796;2023-12-04T05:55:32;23.25;;;12.10;;
6173;SDS011;3120;48.796;9.796;2023-12-04T05:57:57;30.45;;;13.80;;
6173;SDS011;3120;48.796;9.796;2023-12-04T06:00:23;24.38;;;11.68;;
6173;SDS011;3120;48.796;9.796;2023-12-04T06:02:48;25.98;;;12.32;;
6173;SDS011;3120;48.796;9.796;2023-12-04T06:07:42;26.15;;;12.23;;
6173;SDS011;3120;48.796;9.796;2023-12-04T06:10:07;151.23;;;52.55;;
6173;SDS011;3120;48.796;9.796;2023-12-04T06:12:33;87.70;;;38.50;;
6173;SDS011;3120;48.796;9.796;2023-12-04T06:14:59;102.47;;;49.13;;
6173;SDS011;3120;48.796;9.796;2023-12-04T06:17:25;38.55;;;19.33;;
6173;SDS011;3120;48.796;9.796;2023-12-04T06:19:52;40.17;;;16.48;;
6173;SDS011;3120;48.796;9.796;2023-12-04T06:22:18;36.80;;;16.67;;
6173;SDS011;3120;48.796;9.796;2023-12-04T06:24:46;37.25;;;18.15;;
6173;SDS011;3120;48.796;9.796;2023-12-04T06:27:14;37.70;;;18.45;;
6173;SDS011;3120;48.796;9.796;2023-12-04T06:29:41;35.58;;;15.75;;
6173;SDS011;3120;48.796;9.796;2023-12-04T06:32:09;34.17;;;15.57;;
6173;SDS011;3120;48.796;9.796;2023-12-04T06:34:35;31.10;;;14.80;;
6173;SDS011;3120;48.796;9.796;2023-12-04T06:37:02;54.10;;;22.65;;
6173;SDS011;3120;48.796;9.796;2023-12-04T06:39:29;58.53;;;21.38;;
6173;SDS011;3120;48.796;9.796;2023-12-04T06:41:57;45.83;;;19.35;;
6173;SDS011;3120;48.796;9.796;2023-12-04T06:44:24;26.92;;;13.25;;
6173;SDS011;3120;48.796;9.796;2023-12-04T06:46:50;24.23;;;12.25;;
6173;SDS011;3120;48.796;9.796;2023-12-04T06:49:17;25.20;;;12.23;;
6173;SDS011;3120;48.796;9.796;2023-12-04T06:51:43;24.90;;;12.07;;
6173;SDS011;3120;48.796;9.796;2023-12-04T06:54:09;27.15;;;12.43;;
6173;SDS011;3120;48.796;9.796;2023-12-04T06:56:36;26.13;;;11.55;;
6173;SDS011;3120;48.796;9.796;2023-12-04T06:59:01;27.13;;;12.43;;
6173;SDS011;3120;48.796;9.796;2023-12-04T07:01:27;28.10;;;12.23;;
6173;SDS011;3120;48.796;9.796;2023-12-04T07:03:52;24.27;;;11.30;;
6173;SDS011;3120;48.796;9.796;2023-12-04T07:06:18;23.58;;;11.02;;
6173;SDS011;3120;48.796;9.796;2023-12-04T07:08:44;22.60;;;10.68;;
6173;SDS011;3120;48.796;9.796;2023-12-04T07:11:09;26.65;;;11.65;;
6173;SDS011;3120;48.796;9.796;2023-12-04T07:13:35;23.35;;;11.77;;
6173;SDS011;3120;48.796;9.796;2023-12-04T07:16:01;22.05;;;11.68;;
6173;SDS011;3120;48.796;9.796;2023-12-04T07:18:28;24.70;;;11.45;;
6173;SDS011;3120;48.796;9.796;2023-12-04T07:20:53;23.90;;;12.15;;
6173;SDS011;3120;48.796;9.796;2023-12-04T07:23:19;19.67;;;11.18;;
6173;SDS011;3120;48.796;9.796;2023-12-04T07:25:44;22.80;;;10.95;;
6173;SDS011;3120;48.796;9.796;2023-12-04T07:28:11;25.95;;;11.82;;
6173;SDS011;3120;48.796;9.796;2023-12-04T07:30:36;28.13;;;12.90;;
6173;SDS011;3120;48.796;9.796;2023-12-04T07:33:02;25.35;;;11.65;;
6173;SDS011;3120;48.796;9.796;2023-12-04T07:35:28;25.33;;;11.43;;
6173;SDS011;3120;48.796;9.796;2023-12-04T07:37:53;24.40;;;11.68;;
6173;SDS011;3120;48.796;9.796;2023-12-04T07:40:19;26.75;;;12.82;;
6173;SDS011;3120;48.796;9.796;2023-12-04T07:42:46;28.65;;;11.82;;
6173;SDS011;3120;48.796;9.796;2023-12-04T07:45:11;24.67;;;12.50;;
6173;SDS011;3120;48.796;9.796;2023-12-04T07:47:37;21.98;;;11.73;;
6173;SDS011;3120;48.796;9.796;2023-12-04T07:50:02;25.10;;;12.05;;
6173;SDS011;3120;48.796;9.796;2023-12-04T07:52:29;23.67;;;12.38;;
6173;SDS011;3120;48.796;9.796;2023-12-04T07:54:55;23.52;;;12.20;;
6173;SDS011;3120;48.796;9.796;2023-12-04T07:57:22;23.13;;;11.77;;
6173;SDS011;3120;48.796;9.796;2023-12-04T07:59:47;23.98;;;11.73;;
6173;SDS011;3120;48.796;9.796;2023-12-04T08:02:13;31.85;;;13.45;;
6173;SDS011;3120;48.796;9.796;2023-12-04T08:04:39;32.30;;;14.70;;
6173;SDS011;3120;48.796;9.796;2023-12-04T08:07:04;20.27;;;10.70;;
6173;SDS011;3120;48.796;9.796;2023-12-04T08:09:30;25.83;;;11.60;;
6173;SDS011;3120;48.796;9.796;2023-12-04T08:11:55;24.75;;;11.23;;
6173;SDS011;3120;48.796;9.796;2023-12-04T08:14:21;31.85;;;13.60;;
6173;SDS011;3120;48.796;9.796;2023-12-04T08:16:47;28.90;;;13.20;;
6173;SDS011;3120;48.796;9.796;2023-12-04T08:19:13;31.60;;;13.65;;
6173;SDS011;3120;48.796;9.796;2023-12-04T08:21:38;28.23;;;12.98;;
6173;SDS011;3120;48.796;9.796;2023-12-04T08:24:04;34.17;;;15.52;;
6173;SDS011;3120;48.796;9.796;2023-12-04T08:26:30;33.17;;;14.98;;
6173;SDS011;3120;48.796;9.796;2023-12-04T08:28:55;32.17;;;13.25;;
6173;SDS011;3120;48.796;9.796;2023-12-04T08:31:21;28.55;;;13.43;;
6173;SDS011;3120;48.796;9.796;2023-12-04T08:33:47;30.45;;;14.82;;
6173;SDS011;3120;48.796;9.796;2023-12-04T08:36:12;20.85;;;11.13;;
6173;SDS011;3120;48.796;9.796;2023-12-04T08:38:38;19.27;;;9.63;;
6173;SDS011;3120;48.796;9.796;2023-12-04T08:41:04;20.33;;;10.15;;
6173;SDS011;3120;48.796;9.796;2023-12-04T08:43:29;19.13;;;9.52;;
6173;SDS011;3120;48.796;9.796;2023-12-04T08:45:56;24.63;;;11.73;;
6173;SDS011;3120;48.796;9.796;2023-12-04T08:48:22;25.45;;;12.00;;
6173;SDS011;3120;48.796;9.796;2023-12-04T08:50:47;23.77;;;12.48;;
6173;SDS011;3120;48.796;9.796;2023-12-04T08:53:13;25.38;;;12.02;;
6173;SDS011;3120;48.796;9.796;2023-12-04T08:55:39;20.25;;;11.32;;
6173;SDS011;3120;48.796;9.796;2023-12-04T08:58:05;20.52;;;11.48;;
6173;SDS011;3120;48.796;9.796;2023-12-04T09:00:31;23.25;;;12.15;;
6173;SDS011;3120;48.796;9.796;2023-12-04T09:02:57;22.10;;;11.77;;
6173;SDS011;3120;48.796;9.796;2023-12-04T09:05:23;25.80;;;11.90;;
6173;SDS011;3120;48.796;9.796;2023-12-04T09:07:48;21.30;;;11.32;;
6173;SDS011;3120;48.796;9.796;2023-12-04T09:10:14;20.83;;;10.30;;
6173;SDS011;3120;48.796;9.796;2023-12-04T09:12:40;13.50;;;6.20;;
6173;SDS011;3120;48.796;9.796;2023-12-04T09:15:06;21.95;;;9.70;;
6173;SDS011;3120;48.796;9.796;2023-12-04T09:17:31;20.98;;;9.38;;
6173;SDS011;3120;48.796;9.796;2023-12-04T09:19:57;19.55;;;9.52;;
6173;SDS011;3120;48.796;9.796;2023-12-04T09:22:22;20.17;;;10.43;;
6173;SDS011;3120;48.796;9.796;2023-12-04T09:24:48;21.67;;;10.90;;
6173;SDS011;3120;48.796;9.796;2023-12-04T09:27:14;20.75;;;10.48;;
6173;SDS011;3120;48.796;9.796;2023-12-04T09:29:41;19.85;;;11.20;;
6173;SDS011;3120;48.796;9.796;2023-12-04T09:32:07;20.50;;;10.77;;
6173;SDS011;3120;48.796;9.796;2023-12-04T09:34:34;19.98;;;10.57;;
6173;SDS011;3120;48.796;9.796;2023-12-04T09:37:00;27.42;;;14.77;;
6173;SDS011;3120;48.796;9.796;2023-12-04T09:39:25;22.15;;;11.40;;
6173;SDS011;3120;48.796;9.796;2023-12-04T09:41:51;20.40;;;10.65;;
6173;SDS011;3120;48.796;9.796;2023-12-04T09:44:17;19.85;;;11.35;;
6173;SDS011;3120;48.796;9.796;2023-12-04T09:46:45;22.88;;;12.25;;
6173;SDS011;3120;48.796;9.796;2023-12-04T09:49:11;24.65;;;12.40;;
6173;SDS011;3120;48.796;9.796;2023-12-04T09:51:37;27.63;;;15.52;;
6173;SDS011;3120;48.796;9.796;2023-12-04T09:54:03;23.65;;;13.13;;
6173;SDS011;3120;48.796;9.796;2023-12-04T09:56:29;20.83;;;12.27;;
6173;SDS011;3120;48.796;9.796;2023-12-04T09:58:58;21.73;;;11.88;;
6173;SDS011;3120;48.796;9.796;2023-12-04T10:01:24;24.25;;;11.50;;
6173;SDS011;3120;48.796;9.796;2023-12-04T10:03:51;22.45;;;9.52;;
6173;SDS011;3120;48.796;9.796;2023-12-04T10:06:16;23.63;;;10.90;;
6173;SDS011;3120;48.796;9.796;2023-12-04T10:08:43;23.30;;;11.57;;
6173;SDS011;3120;48.796;9.796;2023-12-04T10:11:09;21.90;;;11.30;;
6173;SDS011;3120;48.796;9.796;2023-12-04T10:13:35;22.02;;;11.55;;
6173;SDS011;3120;48.796;9.796;2023-12-04T10:16:01;19.02;;;11.07;;
6173;SDS011;3120;48.796;9.796;2023-12-04T10:18:28;21.65;;;11.52;;
6173;SDS011;3120;48.796;9.796;2023-12-04T10:20:55;30.30;;;14.38;;
6173;SDS011;3120;48.796;9.796;2023-12-04T10:23:21;29.67;;;13.23;;
6173;SDS011;3120;48.796;9.796;2023-12-04T10:25:50;20.48;;;11.57;;
6173;SDS011;3120;48.796;9.796;2023-12-04T10:28:16;26.23;;;12.85;;
6173;SDS011;3120;48.796;9.796;2023-12-04T10:30:43;23.00;;;12.05;;
6173;SDS011;3120;48.796;9.796;2023-12-04T10:33:09;22.25;;;12.02;;
6173;SDS011;3120;48.796;9.796;2023-12-04T10:35:35;22.15;;;11.25;;
6173;SDS011;3120;48.796;9.796;2023-12-04T10:38:01;20.67;;;11.77;;
6173;SDS011;3120;48.796;9.796;2023-12-04T10:40:34;21.77;;;12.32;;
6173;SDS011;3120;48.796;9.796;2023-12-04T10:45:49;41.95;;;14.18;;
6173;SDS011;3120;48.796;9.796;2023-12-04T10:48:15;26.10;;;13.25;;
6173;SDS011;3120;48.796;9.796;2023-12-04T10:50:43;27.50;;;12.32;;
6173;SDS011;3120;48.796;9.796;2023-12-04T10:53:11;20.23;;;11.15;;
6173;SDS011;3120;48.796;9.796;2023-12-04T10:55:38;33.67;;;13.15;;
6173;SDS011;3120;48.796;9.796;2023-12-04T10:58:05;29.85;;;13.57;;
6173;SDS011;3120;48.796;9.796;2023-12-04T11:00:32;24.67;;;12.15;;
6173;SDS011;3120;48.796;9.796;2023-12-04T11:03:02;22.60;;;11.38;;
6173;SDS011;3120;48.796;9.796;2023-12-04T11:05:33;17.70;;;10.02;;
6173;SDS011;3120;48.796;9.796;2023-12-04T11:08:03;23.45;;;11.70;;
6173;SDS011;3120;48.796;9.796;2023-12-04T11:10:32;21.38;;;12.65;;
6173;SDS011;3120;48.796;9.796;2023-12-04T11:13:02;26.20;;;13.30;;
6173;SDS011;3120;48.796;9.796;2023-12-04T11:15:35;29.38;;;15.38;;
6173;SDS011;3120;48.796;9.796;2023-12-04T11:18:07;20.33;;;12.75;;
6173;SDS011;3120;48.796;9.796;2023-12-04T11:20:39;21.30;;;11.45;;
6173;SDS011;3120;48.796;9.796;2023-12-04T11:23:10;21.88;;;11.85;;
6173;SDS011;3120;48.796;9.796;2023-12-04T11:25:38;30.48;;;14.30;;
6173;SDS011;3120;48.796;9.796;2023-12-04T11:28:04;24.30;;;12.88;;
6173;SDS011;3120;48.796;9.796;2023-12-04T11:30:30;27.52;;;14.90;;
6173;SDS011;3120;48.796;9.796;2023-12-04T11:32:56;24.95;;;13.45;;
6173;SDS011;3120;48.796;9.796;2023-12-04T11:35:25;28.88;;;14.70;;
6173;SDS011;3120;48.796;9.796;2023-12-04T11:37:51;25.90;;;13.60;;
6173;SDS011;3120;48.796;9.796;2023-12-04T11:40:18;27.58;;;13.27;;
6173;SDS011;3120;48.796;9.796;2023-12-04T11:42:44;29.63;;;14.60;;
6173;SDS011;3120;48.796;9.796;2023-12-04T11:45:10;29.05;;;13.93;;
6173;SDS011;3120;48.796;9.796;2023-12-04T11:47:49;25.92;;;12.95;;
6173;SDS011;3120;48.796;9.796;2023-12-04T11:50:17;27.85;;;14.00;;
6173;SDS011;3120;48.796;9.796;2023-12-04T11:52:44;30.10;;;14.32;;
6173;SDS011;3120;48.796;9.796;2023-12-04T11:55:10;29.08;;;13.75;;
6173;SDS011;3120;48.796;9.796;2023-12-04T11:57:39;24.02;;;13.85;;
6173;SDS011;3120;48.796;9.796;2023-12-04T12:05:21;24.50;;;13.90;;
6173;SDS011;3120;48.796;9.796;2023-12-04T12:07:47;38.78;;;20.40;;
6173;SDS011;3120;48.796;9.796;2023-12-04T12:10:14;35.90;;;16.23;;
6173;SDS011;3120;48.796;9.796;2023-12-04T12:12:41;30.17;;;16.27;;
6173;SDS011;3120;48.796;9.796;2023-12-04T12:15:08;28.30;;;14.88;;
6173;SDS011;3120;48.796;9.796;2023-12-04T12:17:34;33.72;;;16.40;;
6173;SDS011;3120;48.796;9.796;2023-12-04T12:20:00;29.98;;;15.38;;
6173;SDS011;3120;48.796;9.796;2023-12-04T12:22:26;30.80;;;16.25;;
6173;SDS011;3120;48.796;9.796;2023-12-04T12:24:51;30.98;;;14.82;;
6173;SDS011;3120;48.796;9.796;2023-12-04T12:27:17;29.08;;;16.10;;
6173;SDS011;3120;48.796;9.796;2023-12-04T12:29:42;42.45;;;20.48;;
6173;SDS011;3120;48.796;9.796;2023-12-04T12:32:08;46.60;;;24.48;;
6173;SDS011;3120;48.796;9.796;2023-12-04T12:34:34;35.53;;;18.17;;
6173;SDS011;3120;48.796;9.796;2023-12-04T12:37:01;30.70;;;17.17;;
6173;SDS011;3120;48.796;9.796;2023-12-04T12:39:28;42.60;;;18.60;;
6173;SDS011;3120;48.796;9.796;2023-12-04T12:41:55;33.75;;;17.35;;
6173;SDS011;3120;48.796;9.796;2023-12-04T12:44:20;29.45;;;15.90;;
6173;SDS011;3120;48.796;9.796;2023-12-04T12:46:47;31.23;;;15.50;;
6173;SDS011;3120;48.796;9.796;2023-12-04T12:49:14;27.15;;;14.27;;
6173;SDS011;3120;48.796;9.796;2023-12-04T12:51:46;29.77;;;15.93;;
6173;SDS011;3120;48.796;9.796;2023-12-04T12:54:11;27.70;;;15.82;;
6173;SDS011;3120;48.796;9.796;2023-12-04T12:56:38;32.10;;;15.93;;
6173;SDS011;3120;48.796;9.796;2023-12-04T12:59:03;30.30;;;15.38;;
6173;SDS011;3120;48.796;9.796;2023-12-04T13:01:31;26.67;;;14.00;;
6173;SDS011;3120;48.796;9.796;2023-12-04T13:03:57;25.08;;;13.93;;
6173;SDS011;3120;48.796;9.796;2023-12-04T13:06:22;25.88;;;14.77;;
6173;SDS011;3120;48.796;9.796;2023-12-04T13:08:48;29.25;;;14.77;;
6173;SDS011;3120;48.796;9.796;2023-12-04T13:11:14;26.65;;;14.65;;
6173;SDS011;3120;48.796;9.796;2023-12-04T13:13:39;28.92;;;15.55;;
6173;SDS011;3120;48.796;9.796;2023-12-04T13:16:05;28.02;;;14.85;;
6173;SDS011;3120;48.796;9.796;2023-12-04T13:18:31;31.67;;;15.93;;
6173;SDS011;3120;48.796;9.796;2023-12-04T13:21:00;26.30;;;13.60;;
6173;SDS011;3120;48.796;9.796;2023-12-04T13:23:26;25.10;;;14.30;;
6173;SDS011;3120;48.796;9.796;2023-12-04T13:25:51;27.13;;;15.05;;
6173;SDS011;3120;48.796;9.796;2023-12-04T13:28:19;28.88;;;15.00;;
6173;SDS011;3120;48.796;9.796;2023-12-04T13:30:45;28.70;;;15.20;;
6173;SDS011;3120;48.796;9.796;2023-12-04T13:33:10;28.45;;;15.05;;
6173;SDS011;3120;48.796;9.796;2023-12-04T13:35:36;34.30;;;16.60;;
6173;SDS011;3120;48.796;9.796;2023-12-04T13:38:02;25.27;;;14.80;;
6173;SDS011;3120;48.796;9.796;2023-12-04T13:40:27;28.58;;;16.13;;
6173;SDS011;3120;48.796;9.796;2023-12-04T13:42:57;30.45;;;16.52;;
6173;SDS011;3120;48.796;9.796;2023-12-04T13:45:41;31.20;;;15.70;;
6173;SDS011;3120;48.796;9.796;2023-12-04T13:48:07;30.02;;;16.20;;
6173;SDS011;3120;48.796;9.796;2023-12-04T13:50:32;29.48;;;15.85;;
6173;SDS011;3120;48.796;9.796;2023-12-04T13:52:58;31.75;;;17.73;;
6173;SDS011;3120;48.796;9.796;2023-12-04T13:55:25;34.65;;;17.52;;
6173;SDS011;3120;48.796;9.796;2023-12-04T13:58:20;32.45;;;17.27;;
6173;SDS011;3120;48.796;9.796;2023-12-04T14:01:08;37.78;;;19.13;;
6173;SDS011;3120;48.796;9.796;2023-12-04T14:03:42;44.88;;;21.42;;
6173;SDS011;3120;48.796;9.796;2023-12-04T14:06:08;34.72;;;17.88;;
6173;SDS011;3120;48.796;9.796;2023-12-04T14:08:34;30.95;;;16.73;;
6173;SDS011;3120;48.796;9.796;2023-12-04T14:11:00;39.63;;;18.70;;
6173;SDS011;3120;48.796;9.796;2023-12-04T14:13:27;34.97;;;18.67;;
6173;SDS011;3120;48.796;9.796;2023-12-04T14:15:53;36.70;;;18.52;;
6173;SDS011;3120;48.796;9.796;2023-12-04T14:18:19;38.53;;;20.10;;
6173;SDS011;3120;48.796;9.796;2023-12-04T14:20:45;36.33;;;18.27;;
6173;SDS011;3120;48.796;9.796;2023-12-04T14:23:11;37.75;;;19.80;;
6173;SDS011;3120;48.796;9.796;2023-12-04T14:25:37;37.78;;;18.83;;
6173;SDS011;3120;48.796;9.796;2023-12-04T14:28:02;41.40;;;19.98;;
6173;SDS011;3120;48.796;9.796;2023-12-04T14:30:28;35.35;;;18.70;;
6173;SDS011;3120;48.796;9.796;2023-12-04T14:32:54;38.90;;;19.52;;
6173;SDS011;3120;48.796;9.796;2023-12-04T14:35:20;41.42;;;20.92;;
6173;SDS011;3120;48.796;9.796;2023-12-04T14:37:46;41.63;;;20.25;;
6173;SDS011;3120;48.796;9.796;2023-12-04T14:40:12;35.05;;;19.58;;
6173;SDS011;3120;48.796;9.796;2023-12-04T14:42:42;43.17;;;20.67;;
6173;SDS011;3120;48.796;9.796;2023-12-04T14:45:08;43.10;;;20.92;;
6173;SDS011;3120;48.796;9.796;2023-12-04T14:47:34;35.03;;;19.55;;
6173;SDS011;3120;48.796;9.796;2023-12-04T14:50:01;41.95;;;20.33;;
6173;SDS011;3120;48.796;9.796;2023-12-04T14:52:28;41.85;;;21.05;;